sensor_id;sensor_type;location;lat;lon;timestamp;P1;durP1;ratioP1;P2;durP2;ratioP2
42810;SDS011;28457;55.680;37.656;2022-09-03T00:02:04;3.40;;;1.13;;
42810;SDS011;28457;55.680;37.656;2022-09-03T00:04:38;5.78;;;1.00;;
42810;SDS011;28457;55.680;37.656;2022-09-03T00:07:14;1.77;;;0.60;;
42810;SDS011;28457;55.680;37.656;2022-09-03T00:09:48;4.03;;;1.73;;
42810;SDS011;28457;55.680;37.656;2022-09-03T00:12:23;1.42;;;1.00;;
42810;SDS011;28457;55.680;37.656;2022-09-03T00:14:59;1.20;;;0.70;;
42810;SDS011;28457;55.680;37.656;2022-09-03T00:17:33;4.30;;;1.10;;
42810;SDS011;28457;55.680;37.656;2022-09-03T00:20:06;2.05;;;1.00;;
42810;SDS011;28457;55.680;37.656;2022-09-03T00:22:39;1.38;;;0.80;;
42810;SDS011;28457;55.680;37.656;2022-09-03T00:25:12;1.50;;;0.93;;
42810;SDS011;28457;55.680;37.656;2022-09-03T00:27:44;2.17;;;0.90;;
42810;SDS011;28457;55.680;37.656;2022-09-03T00:30:20;1.98;;;0.85;;
42810;SDS011;28457;55.680;37.656;2022-09-03T00:32:51;1.40;;;0.98;;
42810;SDS011;28457;55.680;37.656;2022-09-03T00:35:26;3.00;;;1.10;;
42810;SDS011;28457;55.680;37.656;2022-09-03T00:37:57;3.78;;;0.93;;
42810;SDS011;28457;55.680;37.656;2022-09-03T00:40:31;1.90;;;0.95;;
42810;SDS011;28457;55.680;37.656;2022-09-03T00:43:14;1.83;;;0.90;;
42810;SDS011;28457;55.680;37.656;2022-09-03T00:45:52;3.00;;;0.98;;
42810;SDS011;28457;55.680;37.656;2022-09-03T00:48:26;2.10;;;1.33;;
42810;SDS011;28457;55.680;37.656;2022-09-03T00:51:03;2.47;;;1.15;;
42810;SDS011;28457;55.680;37.656;2022-09-03T00:53:43;2.80;;;1.40;;
42810;SDS011;28457;55.680;37.656;2022-09-03T00:56:26;3.83;;;2.13;;
42810;SDS011;28457;55.680;37.656;2022-09-03T00:59:03;2.38;;;1.40;;
42810;SDS011;28457;55.680;37.656;2022-09-03T01:01:44;2.20;;;1.33;;
42810;SDS011;28457;55.680;37.656;2022-09-03T01:06:57;3.90;;;1.30;;
42810;SDS011;28457;55.680;37.656;2022-09-03T01:09:40;1.88;;;1.10;;
42810;SDS011;28457;55.680;37.656;2022-09-03T01:12:18;1.55;;;1.10;;
42810;SDS011;28457;55.680;37.656;2022-09-03T01:15:03;2.55;;;1.20;;
42810;SDS011;28457;55.680;37.656;2022-09-03T01:17:45;1.88;;;1.10;;
42810;SDS011;28457;55.680;37.656;2022-09-03T01:20:36;1.63;;;1.10;;
42810;SDS011;28457;55.680;37.656;2022-09-03T01:26:40;1.50;;;1.20;;
42810;SDS011;28457;55.680;37.656;2022-09-03T01:29:21;2.38;;;1.17;;
42810;SDS011;28457;55.680;37.656;2022-09-03T01:31:57;3.50;;;1.25;;
42810;SDS011;28457;55.680;37.656;2022-09-03T01:34:36;3.17;;;1.98;;
42810;SDS011;28457;55.680;37.656;2022-09-03T01:37:16;2.10;;;1.27;;
42810;SDS011;28457;55.680;37.656;2022-09-03T01:39:58;2.78;;;1.20;;
42810;SDS011;28457;55.680;37.656;2022-09-03T01:42:39;2.10;;;1.15;;
42810;SDS011;28457;55.680;37.656;2022-09-03T01:48:25;3.60;;;1.40;;
42810;SDS011;28457;55.680;37.656;2022-09-03T01:51:02;1.73;;;1.20;;
42810;SDS011;28457;55.680;37.656;2022-09-03T01:53:40;3.45;;;1.35;;
42810;SDS011;28457;55.680;37.656;2022-09-03T01:56:27;2.03;;;1.50;;
42810;SDS011;28457;55.680;37.656;2022-09-03T01:59:06;1.80;;;1.20;;
42810;SDS011;28457;55.680;37.656;2022-09-03T02:01:49;1.98;;;1.33;;
42810;SDS011;28457;55.680;37.656;2022-09-03T02:04:25;2.92;;;1.42;;
42810;SDS011;28457;55.680;37.656;2022-09-03T02:06:55;1.50;;;1.10;;
42810;SDS011;28457;55.680;37.656;2022-09-03T02:09:26;2.42;;;1.30;;
42810;SDS011;28457;55.680;37.656;2022-09-03T02:11:59;2.63;;;1.35;;
42810;SDS011;28457;55.680;37.656;2022-09-03T02:14:34;1.70;;;1.25;;
42810;SDS011;28457;55.680;37.656;2022-09-03T02:17:04;2.60;;;1.70;;
42810;SDS011;28457;55.680;37.656;2022-09-03T02:19:34;2.53;;;1.25;;
42810;SDS011;28457;55.680;37.656;2022-09-03T02:22:03;1.83;;;1.23;;
42810;SDS011;28457;55.680;37.656;2022-09-03T02:24:32;2.05;;;1.35;;
42810;SDS011;28457;55.680;37.656;2022-09-03T02:27:01;2.17;;;1.55;;
42810;SDS011;28457;55.680;37.656;2022-09-03T02:29:30;1.80;;;1.38;;
42810;SDS011;28457;55.680;37.656;2022-09-03T02:31:59;2.60;;;1.55;;
42810;SDS011;28457;55.680;37.656;2022-09-03T02:34:29;2.20;;;1.30;;
42810;SDS011;28457;55.680;37.656;2022-09-03T02:37:00;1.80;;;1.30;;
42810;SDS011;28457;55.680;37.656;2022-09-03T02:39:39;2.67;;;1.77;;
42810;SDS011;28457;55.680;37.656;2022-09-03T02:42:09;2.72;;;1.60;;
42810;SDS011;28457;55.680;37.656;2022-09-03T02:44:40;2.35;;;1.30;;
42810;SDS011;28457;55.680;37.656;2022-09-03T02:47:13;2.78;;;1.70;;
42810;SDS011;28457;55.680;37.656;2022-09-03T02:49:43;1.83;;;1.20;;
42810;SDS011;28457;55.680;37.656;2022-09-03T02:52:12;2.75;;;1.50;;
42810;SDS011;28457;55.680;37.656;2022-09-03T02:54:41;4.03;;;1.40;;
42810;SDS011;28457;55.680;37.656;2022-09-03T02:57:12;2.28;;;1.40;;
42810;SDS011;28457;55.680;37.656;2022-09-03T02:59:48;3.15;;;1.80;;
42810;SDS011;28457;55.680;37.656;2022-09-03T03:02:17;3.03;;;1.45;;
42810;SDS011;28457;55.680;37.656;2022-09-03T03:04:47;1.60;;;1.25;;
42810;SDS011;28457;55.680;37.656;2022-09-03T03:07:15;3.25;;;1.60;;
42810;SDS011;28457;55.680;37.656;2022-09-03T03:09:44;2.65;;;1.40;;
42810;SDS011;28457;55.680;37.656;2022-09-03T03:12:12;2.30;;;1.52;;
42810;SDS011;28457;55.680;37.656;2022-09-03T03:14:44;2.30;;;1.58;;
42810;SDS011;28457;55.680;37.656;2022-09-03T03:17:12;2.00;;;1.45;;
42810;SDS011;28457;55.680;37.656;2022-09-03T03:19:41;2.53;;;1.70;;
42810;SDS011;28457;55.680;37.656;2022-09-03T03:22:10;2.28;;;1.48;;
42810;SDS011;28457;55.680;37.656;2022-09-03T03:24:39;3.15;;;1.90;;
42810;SDS011;28457;55.680;37.656;2022-09-03T03:27:08;2.40;;;1.50;;
42810;SDS011;28457;55.680;37.656;2022-09-03T03:29:36;2.40;;;1.33;;
42810;SDS011;28457;55.680;37.656;2022-09-03T03:32:06;3.95;;;1.83;;
42810;SDS011;28457;55.680;37.656;2022-09-03T03:34:34;2.10;;;1.70;;
42810;SDS011;28457;55.680;37.656;2022-09-03T03:37:03;2.70;;;1.70;;
42810;SDS011;28457;55.680;37.656;2022-09-03T03:39:33;1.70;;;1.30;;
42810;SDS011;28457;55.680;37.656;2022-09-03T03:42:03;3.22;;;1.73;;
42810;SDS011;28457;55.680;37.656;2022-09-03T03:44:31;2.30;;;1.45;;
42810;SDS011;28457;55.680;37.656;2022-09-03T03:47:00;2.20;;;1.60;;
42810;SDS011;28457;55.680;37.656;2022-09-03T03:49:31;2.70;;;1.60;;
42810;SDS011;28457;55.680;37.656;2022-09-03T03:52:00;2.55;;;1.70;;
42810;SDS011;28457;55.680;37.656;2022-09-03T03:54:30;3.13;;;1.60;;
42810;SDS011;28457;55.680;37.656;2022-09-03T03:56:59;2.30;;;1.70;;
42810;SDS011;28457;55.680;37.656;2022-09-03T03:59:28;4.65;;;1.88;;
42810;SDS011;28457;55.680;37.656;2022-09-03T04:01:57;3.97;;;1.90;;
42810;SDS011;28457;55.680;37.656;2022-09-03T04:04:27;3.25;;;2.20;;
42810;SDS011;28457;55.680;37.656;2022-09-03T04:06:56;2.40;;;1.50;;
42810;SDS011;28457;55.680;37.656;2022-09-03T04:09:24;2.72;;;1.65;;
42810;SDS011;28457;55.680;37.656;2022-09-03T04:11:53;3.42;;;1.60;;
42810;SDS011;28457;55.680;37.656;2022-09-03T04:14:25;1.85;;;1.35;;
42810;SDS011;28457;55.680;37.656;2022-09-03T04:16:54;2.22;;;1.40;;
42810;SDS011;28457;55.680;37.656;2022-09-03T04:19:23;2.40;;;1.85;;
42810;SDS011;28457;55.680;37.656;2022-09-03T04:21:52;2.83;;;1.92;;
42810;SDS011;28457;55.680;37.656;2022-09-03T04:24:20;3.95;;;1.95;;
42810;SDS011;28457;55.680;37.656;2022-09-03T04:26:49;3.58;;;1.73;;
42810;SDS011;28457;55.680;37.656;2022-09-03T04:29:19;2.60;;;2.00;;
42810;SDS011;28457;55.680;37.656;2022-09-03T04:31:50;2.95;;;1.98;;
42810;SDS011;28457;55.680;37.656;2022-09-03T04:34:36;2.53;;;1.83;;
42810;SDS011;28457;55.680;37.656;2022-09-03T04:37:04;2.30;;;1.90;;
42810;SDS011;28457;55.680;37.656;2022-09-03T04:39:32;2.55;;;1.60;;
42810;SDS011;28457;55.680;37.656;2022-09-03T04:42:01;2.65;;;1.67;;
42810;SDS011;28457;55.680;37.656;2022-09-03T04:44:29;2.13;;;1.42;;
42810;SDS011;28457;55.680;37.656;2022-09-03T04:46:59;2.20;;;1.90;;
42810;SDS011;28457;55.680;37.656;2022-09-03T04:49:28;2.20;;;1.50;;
42810;SDS011;28457;55.680;37.656;2022-09-03T04:51:57;2.58;;;1.80;;
42810;SDS011;28457;55.680;37.656;2022-09-03T04:54:25;5.43;;;2.33;;
42810;SDS011;28457;55.680;37.656;2022-09-03T04:56:55;4.35;;;2.15;;
42810;SDS011;28457;55.680;37.656;2022-09-03T04:59:24;4.05;;;2.10;;
42810;SDS011;28457;55.680;37.656;2022-09-03T05:01:52;2.20;;;1.65;;
42810;SDS011;28457;55.680;37.656;2022-09-03T05:04:23;2.38;;;1.73;;
42810;SDS011;28457;55.680;37.656;2022-09-03T05:06:52;3.65;;;2.13;;
42810;SDS011;28457;55.680;37.656;2022-09-03T05:09:21;2.92;;;1.70;;
42810;SDS011;28457;55.680;37.656;2022-09-03T05:11:49;4.25;;;2.10;;
42810;SDS011;28457;55.680;37.656;2022-09-03T05:14:17;2.60;;;1.70;;
42810;SDS011;28457;55.680;37.656;2022-09-03T05:16:46;1.90;;;1.63;;
42810;SDS011;28457;55.680;37.656;2022-09-03T05:19:19;3.75;;;2.08;;
42810;SDS011;28457;55.680;37.656;2022-09-03T05:21:48;2.97;;;1.85;;
42810;SDS011;28457;55.680;37.656;2022-09-03T05:24:17;2.53;;;1.60;;
42810;SDS011;28457;55.680;37.656;2022-09-03T05:26:45;3.30;;;2.00;;
42810;SDS011;28457;55.680;37.656;2022-09-03T05:29:14;3.55;;;2.05;;
42810;SDS011;28457;55.680;37.656;2022-09-03T05:31:42;2.35;;;1.70;;
42810;SDS011;28457;55.680;37.656;2022-09-03T05:34:11;4.80;;;1.95;;
42810;SDS011;28457;55.680;37.656;2022-09-03T05:36:44;4.15;;;2.00;;
42810;SDS011;28457;55.680;37.656;2022-09-03T05:39:17;3.25;;;1.80;;
42810;SDS011;28457;55.680;37.656;2022-09-03T05:41:45;3.42;;;2.03;;
42810;SDS011;28457;55.680;37.656;2022-09-03T05:44:17;5.72;;;1.83;;
42810;SDS011;28457;55.680;37.656;2022-09-03T05:46:47;2.20;;;1.58;;
42810;SDS011;28457;55.680;37.656;2022-09-03T05:49:17;2.45;;;1.85;;
42810;SDS011;28457;55.680;37.656;2022-09-03T05:51:45;2.67;;;1.60;;
42810;SDS011;28457;55.680;37.656;2022-09-03T05:54:16;3.30;;;1.85;;
42810;SDS011;28457;55.680;37.656;2022-09-03T05:56:45;3.78;;;1.85;;
42810;SDS011;28457;55.680;37.656;2022-09-03T05:59:13;3.42;;;1.70;;
42810;SDS011;28457;55.680;37.656;2022-09-03T06:01:43;2.58;;;1.70;;
42810;SDS011;28457;55.680;37.656;2022-09-03T06:04:18;2.75;;;1.38;;
42810;SDS011;28457;55.680;37.656;2022-09-03T06:06:47;2.20;;;1.50;;
42810;SDS011;28457;55.680;37.656;2022-09-03T06:09:18;4.07;;;1.83;;
42810;SDS011;28457;55.680;37.656;2022-09-03T06:11:49;2.65;;;1.42;;
42810;SDS011;28457;55.680;37.656;2022-09-03T06:14:19;2.38;;;1.60;;
42810;SDS011;28457;55.680;37.656;2022-09-03T06:16:48;2.80;;;1.80;;
42810;SDS011;28457;55.680;37.656;2022-09-03T06:19:19;2.88;;;1.60;;
42810;SDS011;28457;55.680;37.656;2022-09-03T06:21:47;3.58;;;1.70;;
42810;SDS011;28457;55.680;37.656;2022-09-03T06:24:18;3.45;;;1.45;;
42810;SDS011;28457;55.680;37.656;2022-09-03T06:26:53;2.03;;;1.20;;
42810;SDS011;28457;55.680;37.656;2022-09-03T06:29:23;7.30;;;1.73;;
42810;SDS011;28457;55.680;37.656;2022-09-03T06:31:52;2.72;;;1.42;;
42810;SDS011;28457;55.680;37.656;2022-09-03T06:34:23;4.18;;;1.88;;
42810;SDS011;28457;55.680;37.656;2022-09-03T06:36:52;5.05;;;1.55;;
42810;SDS011;28457;55.680;37.656;2022-09-03T06:39:22;2.38;;;1.45;;
42810;SDS011;28457;55.680;37.656;2022-09-03T06:41:52;3.20;;;1.48;;
42810;SDS011;28457;55.680;37.656;2022-09-03T06:44:32;3.22;;;1.30;;
42810;SDS011;28457;55.680;37.656;2022-09-03T06:47:00;3.83;;;2.13;;
42810;SDS011;28457;55.680;37.656;2022-09-03T06:49:29;3.10;;;1.73;;
42810;SDS011;28457;55.680;37.656;2022-09-03T06:51:57;4.45;;;1.77;;
42810;SDS011;28457;55.680;37.656;2022-09-03T06:54:27;2.90;;;1.48;;
42810;SDS011;28457;55.680;37.656;2022-09-03T06:56:56;2.80;;;1.85;;
42810;SDS011;28457;55.680;37.656;2022-09-03T06:59:25;2.90;;;1.55;;
42810;SDS011;28457;55.680;37.656;2022-09-03T07:01:54;2.67;;;1.55;;
42810;SDS011;28457;55.680;37.656;2022-09-03T07:04:24;1.92;;;1.10;;
42810;SDS011;28457;55.680;37.656;2022-09-03T07:06:54;1.73;;;1.27;;
42810;SDS011;28457;55.680;37.656;2022-09-03T07:09:23;3.40;;;1.10;;
42810;SDS011;28457;55.680;37.656;2022-09-03T07:11:53;3.22;;;1.20;;
42810;SDS011;28457;55.680;37.656;2022-09-03T07:14:22;2.33;;;1.33;;
42810;SDS011;28457;55.680;37.656;2022-09-03T07:16:52;1.83;;;1.33;;
42810;SDS011;28457;55.680;37.656;2022-09-03T07:19:21;3.30;;;1.38;;
42810;SDS011;28457;55.680;37.656;2022-09-03T07:21:49;4.57;;;1.90;;
42810;SDS011;28457;55.680;37.656;2022-09-03T07:24:18;3.03;;;1.20;;
42810;SDS011;28457;55.680;37.656;2022-09-03T07:26:48;2.45;;;1.50;;
42810;SDS011;28457;55.680;37.656;2022-09-03T07:29:18;3.42;;;1.15;;
42810;SDS011;28457;55.680;37.656;2022-09-03T07:31:48;2.70;;;1.50;;
42810;SDS011;28457;55.680;37.656;2022-09-03T07:34:19;2.38;;;1.35;;
42810;SDS011;28457;55.680;37.656;2022-09-03T07:36:52;2.83;;;1.30;;
42810;SDS011;28457;55.680;37.656;2022-09-03T07:39:20;3.30;;;1.17;;
42810;SDS011;28457;55.680;37.656;2022-09-03T07:41:49;1.85;;;1.30;;
42810;SDS011;28457;55.680;37.656;2022-09-03T07:44:19;3.30;;;1.75;;
42810;SDS011;28457;55.680;37.656;2022-09-03T07:46:50;3.65;;;1.30;;
42810;SDS011;28457;55.680;37.656;2022-09-03T07:49:19;2.13;;;1.60;;
42810;SDS011;28457;55.680;37.656;2022-09-03T07:51:48;4.38;;;1.38;;
42810;SDS011;28457;55.680;37.656;2022-09-03T07:54:20;2.75;;;1.15;;
42810;SDS011;28457;55.680;37.656;2022-09-03T07:56:50;2.10;;;1.23;;
42810;SDS011;28457;55.680;37.656;2022-09-03T07:59:19;1.92;;;1.38;;
42810;SDS011;28457;55.680;37.656;2022-09-03T08:01:49;1.98;;;1.27;;
42810;SDS011;28457;55.680;37.656;2022-09-03T08:04:18;1.73;;;0.85;;
42810;SDS011;28457;55.680;37.656;2022-09-03T08:06:47;1.33;;;0.90;;
42810;SDS011;28457;55.680;37.656;2022-09-03T08:09:21;1.80;;;1.00;;
42810;SDS011;28457;55.680;37.656;2022-09-03T08:11:50;1.83;;;1.10;;
42810;SDS011;28457;55.680;37.656;2022-09-03T08:14:20;1.30;;;1.10;;
42810;SDS011;28457;55.680;37.656;2022-09-03T08:16:48;2.70;;;1.10;;
42810;SDS011;28457;55.680;37.656;2022-09-03T08:19:17;2.42;;;1.13;;
42810;SDS011;28457;55.680;37.656;2022-09-03T08:21:46;3.45;;;1.58;;
42810;SDS011;28457;55.680;37.656;2022-09-03T08:24:16;2.58;;;1.02;;
42810;SDS011;28457;55.680;37.656;2022-09-03T08:26:46;3.85;;;1.00;;
42810;SDS011;28457;55.680;37.656;2022-09-03T08:29:19;2.08;;;1.08;;
42810;SDS011;28457;55.680;37.656;2022-09-03T08:31:49;4.82;;;1.63;;
42810;SDS011;28457;55.680;37.656;2022-09-03T08:34:18;1.85;;;1.15;;
42810;SDS011;28457;55.680;37.656;2022-09-03T08:36:47;5.47;;;1.40;;
42810;SDS011;28457;55.680;37.656;2022-09-03T08:39:16;2.75;;;1.30;;
42810;SDS011;28457;55.680;37.656;2022-09-03T08:42:01;7.15;;;1.55;;
42810;SDS011;28457;55.680;37.656;2022-09-03T08:44:43;2.58;;;1.02;;
42810;SDS011;28457;55.680;37.656;2022-09-03T08:47:15;2.60;;;0.90;;
42810;SDS011;28457;55.680;37.656;2022-09-03T08:49:50;2.08;;;1.10;;
42810;SDS011;28457;55.680;37.656;2022-09-03T08:52:24;2.38;;;0.90;;
42810;SDS011;28457;55.680;37.656;2022-09-03T08:55:05;3.30;;;0.90;;
42810;SDS011;28457;55.680;37.656;2022-09-03T08:57:44;2.03;;;0.80;;
42810;SDS011;28457;55.680;37.656;2022-09-03T09:00:17;2.83;;;1.10;;
42810;SDS011;28457;55.680;37.656;2022-09-03T09:02:49;2.17;;;0.82;;
42810;SDS011;28457;55.680;37.656;2022-09-03T09:05:28;2.08;;;0.98;;
42810;SDS011;28457;55.680;37.656;2022-09-03T09:08:11;1.52;;;0.90;;
42810;SDS011;28457;55.680;37.656;2022-09-03T09:10:48;1.65;;;0.73;;
42810;SDS011;28457;55.680;37.656;2022-09-03T09:13:26;1.20;;;0.68;;
42810;SDS011;28457;55.680;37.656;2022-09-03T09:16:04;1.92;;;0.82;;
42810;SDS011;28457;55.680;37.656;2022-09-03T09:18:42;1.30;;;0.70;;
42810;SDS011;28457;55.680;37.656;2022-09-03T09:21:17;1.27;;;0.80;;
42810;SDS011;28457;55.680;37.656;2022-09-03T09:23:53;2.33;;;0.95;;
42810;SDS011;28457;55.680;37.656;2022-09-03T09:26:27;6.63;;;2.45;;
42810;SDS011;28457;55.680;37.656;2022-09-03T09:28:56;4.10;;;1.50;;
42810;SDS011;28457;55.680;37.656;2022-09-03T09:31:31;8.45;;;2.97;;
42810;SDS011;28457;55.680;37.656;2022-09-03T09:34:02;1.80;;;1.10;;
42810;SDS011;28457;55.680;37.656;2022-09-03T09:36:34;4.20;;;1.80;;
42810;SDS011;28457;55.680;37.656;2022-09-03T09:39:09;2.70;;;1.20;;
42810;SDS011;28457;55.680;37.656;2022-09-03T09:41:41;5.43;;;2.00;;
42810;SDS011;28457;55.680;37.656;2022-09-03T09:44:17;3.08;;;1.30;;
42810;SDS011;28457;55.680;37.656;2022-09-03T09:46:48;2.45;;;0.88;;
42810;SDS011;28457;55.680;37.656;2022-09-03T09:49:24;5.60;;;1.42;;
42810;SDS011;28457;55.680;37.656;2022-09-03T09:52:01;2.42;;;0.80;;
42810;SDS011;28457;55.680;37.656;2022-09-03T09:54:33;3.05;;;1.10;;
42810;SDS011;28457;55.680;37.656;2022-09-03T09:57:03;3.50;;;1.27;;
42810;SDS011;28457;55.680;37.656;2022-09-03T09:59:33;3.95;;;1.02;;
42810;SDS011;28457;55.680;37.656;2022-09-03T10:02:10;2.20;;;0.98;;
42810;SDS011;28457;55.680;37.656;2022-09-03T10:04:48;1.15;;;0.75;;
42810;SDS011;28457;55.680;37.656;2022-09-03T10:07:21;1.98;;;0.90;;
42810;SDS011;28457;55.680;37.656;2022-09-03T10:09:58;3.38;;;0.88;;
42810;SDS011;28457;55.680;37.656;2022-09-03T10:12:34;3.00;;;0.73;;
42810;SDS011;28457;55.680;37.656;2022-09-03T10:15:14;3.05;;;1.10;;
42810;SDS011;28457;55.680;37.656;2022-09-03T10:18:04;2.65;;;1.00;;
42810;SDS011;28457;55.680;37.656;2022-09-03T10:20:39;2.13;;;0.95;;
42810;SDS011;28457;55.680;37.656;2022-09-03T10:23:14;2.30;;;1.23;;
42810;SDS011;28457;55.680;37.656;2022-09-03T10:25:54;1.73;;;0.90;;
42810;SDS011;28457;55.680;37.656;2022-09-03T10:28:33;1.65;;;1.00;;
42810;SDS011;28457;55.680;37.656;2022-09-03T10:31:12;1.42;;;0.98;;
42810;SDS011;28457;55.680;37.656;2022-09-03T10:33:59;1.73;;;0.70;;
42810;SDS011;28457;55.680;37.656;2022-09-03T10:36:36;2.90;;;0.90;;
42810;SDS011;28457;55.680;37.656;2022-09-03T10:39:12;1.40;;;0.73;;
42810;SDS011;28457;55.680;37.656;2022-09-03T10:41:49;1.10;;;0.70;;
42810;SDS011;28457;55.680;37.656;2022-09-03T10:47:31;2.35;;;1.13;;
42810;SDS011;28457;55.680;37.656;2022-09-03T10:50:14;2.78;;;0.70;;
42810;SDS011;28457;55.680;37.656;2022-09-03T10:52:55;1.40;;;0.90;;
42810;SDS011;28457;55.680;37.656;2022-09-03T10:55:37;2.42;;;0.90;;
42810;SDS011;28457;55.680;37.656;2022-09-03T10:58:16;0.95;;;0.60;;
42810;SDS011;28457;55.680;37.656;2022-09-03T11:01:00;1.17;;;0.80;;
42810;SDS011;28457;55.680;37.656;2022-09-03T11:03:38;1.02;;;0.63;;
42810;SDS011;28457;55.680;37.656;2022-09-03T11:06:18;1.95;;;0.70;;
42810;SDS011;28457;55.680;37.656;2022-09-03T11:08:52;1.23;;;0.68;;
42810;SDS011;28457;55.680;37.656;2022-09-03T11:11:32;1.20;;;0.75;;
42810;SDS011;28457;55.680;37.656;2022-09-03T11:14:06;1.65;;;0.70;;
42810;SDS011;28457;55.680;37.656;2022-09-03T11:16:37;1.85;;;0.85;;
42810;SDS011;28457;55.680;37.656;2022-09-03T11:19:09;2.00;;;0.70;;
42810;SDS011;28457;55.680;37.656;2022-09-03T11:21:44;0.60;;;0.43;;
42810;SDS011;28457;55.680;37.656;2022-09-03T11:24:16;0.95;;;0.70;;
42810;SDS011;28457;55.680;37.656;2022-09-03T11:26:49;3.05;;;0.90;;
42810;SDS011;28457;55.680;37.656;2022-09-03T11:29:24;3.20;;;1.15;;
42810;SDS011;28457;55.680;37.656;2022-09-03T11:32:04;0.77;;;0.50;;
42810;SDS011;28457;55.680;37.656;2022-09-03T11:34:44;2.13;;;0.70;;
42810;SDS011;28457;55.680;37.656;2022-09-03T11:37:16;1.50;;;0.98;;
42810;SDS011;28457;55.680;37.656;2022-09-03T11:39:57;1.27;;;0.50;;
42810;SDS011;28457;55.680;37.656;2022-09-03T11:42:31;3.25;;;1.05;;
42810;SDS011;28457;55.680;37.656;2022-09-03T11:45:12;2.22;;;0.70;;
42810;SDS011;28457;55.680;37.656;2022-09-03T11:47:48;1.65;;;0.60;;
42810;SDS011;28457;55.680;37.656;2022-09-03T11:50:19;1.65;;;1.00;;
42810;SDS011;28457;55.680;37.656;2022-09-03T11:52:53;3.05;;;1.30;;
42810;SDS011;28457;55.680;37.656;2022-09-03T11:55:46;2.22;;;1.02;;
42810;SDS011;28457;55.680;37.656;2022-09-03T11:58:21;1.73;;;0.80;;
42810;SDS011;28457;55.680;37.656;2022-09-03T12:00:53;1.27;;;0.73;;
42810;SDS011;28457;55.680;37.656;2022-09-03T12:03:24;1.48;;;0.80;;
42810;SDS011;28457;55.680;37.656;2022-09-03T12:06:01;1.55;;;0.70;;
42810;SDS011;28457;55.680;37.656;2022-09-03T12:08:47;0.60;;;0.47;;
42810;SDS011;28457;55.680;37.656;2022-09-03T12:11:32;3.40;;;0.90;;
42810;SDS011;28457;55.680;37.656;2022-09-03T12:14:15;3.90;;;1.00;;
42810;SDS011;28457;55.680;37.656;2022-09-03T12:17:07;1.58;;;0.80;;
42810;SDS011;28457;55.680;37.656;2022-09-03T12:19:44;0.77;;;0.60;;
42810;SDS011;28457;55.680;37.656;2022-09-03T12:22:18;2.25;;;0.75;;
42810;SDS011;28457;55.680;37.656;2022-09-03T12:24:50;1.67;;;0.65;;
42810;SDS011;28457;55.680;37.656;2022-09-03T12:27:20;2.20;;;0.90;;
42810;SDS011;28457;55.680;37.656;2022-09-03T12:29:51;3.00;;;0.77;;
42810;SDS011;28457;55.680;37.656;2022-09-03T12:32:25;1.92;;;1.02;;
42810;SDS011;28457;55.680;37.656;2022-09-03T12:34:55;2.22;;;1.10;;
42810;SDS011;28457;55.680;37.656;2022-09-03T12:37:25;1.23;;;0.70;;
42810;SDS011;28457;55.680;37.656;2022-09-03T12:40:17;0.85;;;0.60;;
42810;SDS011;28457;55.680;37.656;2022-09-03T12:42:48;1.45;;;0.70;;
42810;SDS011;28457;55.680;37.656;2022-09-03T12:45:18;1.48;;;0.60;;
42810;SDS011;28457;55.680;37.656;2022-09-03T12:47:48;1.38;;;0.70;;
42810;SDS011;28457;55.680;37.656;2022-09-03T12:50:18;1.30;;;0.73;;
42810;SDS011;28457;55.680;37.656;2022-09-03T12:52:47;1.20;;;0.80;;
42810;SDS011;28457;55.680;37.656;2022-09-03T12:55:31;1.95;;;0.68;;
42810;SDS011;28457;55.680;37.656;2022-09-03T12:58:06;1.20;;;0.63;;
42810;SDS011;28457;55.680;37.656;2022-09-03T13:00:41;3.20;;;1.10;;
42810;SDS011;28457;55.680;37.656;2022-09-03T13:03:14;2.35;;;1.30;;
42810;SDS011;28457;55.680;37.656;2022-09-03T13:05:47;1.35;;;0.80;;
42810;SDS011;28457;55.680;37.656;2022-09-03T13:08:19;4.40;;;1.63;;
42810;SDS011;28457;55.680;37.656;2022-09-03T13:10:55;3.20;;;0.85;;
42810;SDS011;28457;55.680;37.656;2022-09-03T13:13:27;8.13;;;1.52;;
42810;SDS011;28457;55.680;37.656;2022-09-03T13:19:03;2.35;;;1.10;;
42810;SDS011;28457;55.680;37.656;2022-09-03T13:21:39;1.77;;;1.00;;
42810;SDS011;28457;55.680;37.656;2022-09-03T13:24:18;1.77;;;0.90;;
42810;SDS011;28457;55.680;37.656;2022-09-03T13:27:05;1.60;;;1.10;;
42810;SDS011;28457;55.680;37.656;2022-09-03T13:29:48;1.27;;;0.95;;
42810;SDS011;28457;55.680;37.656;2022-09-03T13:32:31;2.05;;;0.70;;
42810;SDS011;28457;55.680;37.656;2022-09-03T13:35:07;1.92;;;0.70;;
42810;SDS011;28457;55.680;37.656;2022-09-03T13:37:39;1.83;;;0.90;;
42810;SDS011;28457;55.680;37.656;2022-09-03T13:40:17;1.55;;;1.00;;
42810;SDS011;28457;55.680;37.656;2022-09-03T13:42:53;2.10;;;1.33;;
42810;SDS011;28457;55.680;37.656;2022-09-03T13:45:30;1.88;;;0.90;;
42810;SDS011;28457;55.680;37.656;2022-09-03T13:48:07;3.53;;;0.85;;
42810;SDS011;28457;55.680;37.656;2022-09-03T13:51:14;1.50;;;0.80;;
42810;SDS011;28457;55.680;37.656;2022-09-03T13:53:52;1.50;;;0.87;;
42810;SDS011;28457;55.680;37.656;2022-09-03T13:56:34;2.53;;;0.80;;
42810;SDS011;28457;55.680;37.656;2022-09-03T13:59:13;2.50;;;0.80;;
42810;SDS011;28457;55.680;37.656;2022-09-03T14:01:57;1.58;;;1.00;;
42810;SDS011;28457;55.680;37.656;2022-09-03T14:04:39;2.25;;;1.17;;
42810;SDS011;28457;55.680;37.656;2022-09-03T14:07:14;1.40;;;0.82;;
42810;SDS011;28457;55.680;37.656;2022-09-03T14:09:53;1.15;;;0.80;;
42810;SDS011;28457;55.680;37.656;2022-09-03T14:12:33;1.88;;;0.80;;
42810;SDS011;28457;55.680;37.656;2022-09-03T14:15:14;3.08;;;1.23;;
42810;SDS011;28457;55.680;37.656;2022-09-03T14:17:47;2.13;;;0.85;;
42810;SDS011;28457;55.680;37.656;2022-09-03T14:20:24;1.33;;;0.80;;
42810;SDS011;28457;55.680;37.656;2022-09-03T14:22:55;1.70;;;1.10;;
42810;SDS011;28457;55.680;37.656;2022-09-03T14:25:29;1.17;;;0.95;;
42810;SDS011;28457;55.680;37.656;2022-09-03T14:28:11;1.38;;;0.68;;
42810;SDS011;28457;55.680;37.656;2022-09-03T14:30:45;3.78;;;0.80;;
42810;SDS011;28457;55.680;37.656;2022-09-03T14:33:24;1.60;;;0.80;;
42810;SDS011;28457;55.680;37.656;2022-09-03T14:36:00;2.15;;;1.10;;
42810;SDS011;28457;55.680;37.656;2022-09-03T14:38:56;1.38;;;0.80;;
42810;SDS011;28457;55.680;37.656;2022-09-03T14:41:56;3.28;;;1.63;;
42810;SDS011;28457;55.680;37.656;2022-09-03T14:44:52;1.20;;;1.00;;
42810;SDS011;28457;55.680;37.656;2022-09-03T14:47:44;4.13;;;1.23;;
42810;SDS011;28457;55.680;37.656;2022-09-03T14:53:25;1.80;;;1.10;;
42810;SDS011;28457;55.680;37.656;2022-09-03T14:56:25;1.33;;;0.73;;
42810;SDS011;28457;55.680;37.656;2022-09-03T14:59:09;2.05;;;0.80;;
42810;SDS011;28457;55.680;37.656;2022-09-03T15:02:05;3.53;;;1.92;;
42810;SDS011;28457;55.680;37.656;2022-09-03T15:04:52;2.35;;;1.48;;
42810;SDS011;28457;55.680;37.656;2022-09-03T15:07:40;2.75;;;1.10;;
42810;SDS011;28457;55.680;37.656;2022-09-03T15:10:19;3.22;;;1.80;;
42810;SDS011;28457;55.680;37.656;2022-09-03T15:12:56;4.65;;;1.35;;
42810;SDS011;28457;55.680;37.656;2022-09-03T15:15:29;1.77;;;0.93;;
42810;SDS011;28457;55.680;37.656;2022-09-03T15:20:45;1.65;;;1.00;;
42810;SDS011;28457;55.680;37.656;2022-09-03T15:23:23;3.15;;;1.10;;
42810;SDS011;28457;55.680;37.656;2022-09-03T15:31:54;1.92;;;0.90;;
42810;SDS011;28457;55.680;37.656;2022-09-03T15:34:41;2.60;;;1.60;;
42810;SDS011;28457;55.680;37.656;2022-09-03T15:37:26;1.50;;;0.90;;
42810;SDS011;28457;55.680;37.656;2022-09-03T15:40:00;1.90;;;1.00;;
42810;SDS011;28457;55.680;37.656;2022-09-03T15:42:34;1.75;;;0.90;;